Seiyo Maru — JI3719 — position and weather

sailwx.info

Track history (hours):
 
Tides and Currents Weather Stations Pressure Air Temp Water Temp Dewpoint Dewpoint Depression Visibility Wind Speed Wind Dir Waves Ship Positions

Seiyo Maru

Last reported at 2017-Sep-18 02:51 UTC. Time now 2017-Sep-22 09:39 UTC.
Position N 34°39' E 135°26'.

Length 44 m; draft 4.5 m.

Type: Tug. MMSI: 431301711.

Date/timePositionNaut miles runAvg speedWind from/ knotsBaromVisibWave heightAir tempDewpointWater temp
2017-Sep-18 02:51N 34°39' E 135°26'2 6.8
2017-Sep-18 02:30N 34°38' E 135°24'4 7.8
2017-Sep-18 01:59N 34°34' E 135°24'1 1.0
2017-Sep-18 00:36N 34°33' E 135°25'1 4.1
2017-Sep-18 00:28N 34°33' E 135°24'3 7.1
2017-Sep-18 00:01N 34°33' E 135°20'0 0.7
2017-Sep-17 23:30N 34°34' E 135°20'4 7.1
2017-Sep-17 23:00N 34°37' E 135°23'4 7.5
2017-Sep-17 22:30N 34°39' E 135°26'0 0.0
2017-Sep-17 22:00N 34°39' E 135°26'0 0.0
2017-Sep-17 21:30N 34°39' E 135°26'0 0.0
2017-Sep-17 21:00N 34°39' E 135°26'0 0.0
2017-Sep-17 20:30N 34°39' E 135°26'0 0.0
2017-Sep-17 20:00N 34°39' E 135°26'0 0.0
2017-Sep-17 19:30N 34°39' E 135°26'0 0.0
2017-Sep-17 19:00N 34°39' E 135°26'0 0.0
2017-Sep-17 18:30N 34°39' E 135°26'0 0.0
2017-Sep-17 18:00N 34°39' E 135°26'0 0.0
2017-Sep-17 17:30N 34°39' E 135°26'0 0.0
2017-Sep-17 17:00N 34°39' E 135°26'0 0.0
2017-Sep-17 16:30N 34°39' E 135°26'0 0.0
2017-Sep-17 16:00N 34°39' E 135°26'0 0.0
2017-Sep-17 15:30N 34°39' E 135°26'0 0.0
2017-Sep-17 15:00N 34°39' E 135°26'0 0.0
2017-Sep-17 14:30N 34°39' E 135°26'0 0.0
2017-Sep-17 14:00N 34°39' E 135°26'0 0.0
2017-Sep-17 13:30N 34°39' E 135°26'0 0.0
2017-Sep-17 13:00N 34°39' E 135°26'0 0.0
2017-Sep-17 12:30N 34°39' E 135°26'0 0.0
2017-Sep-17 12:00N 34°39' E 135°26'0 0.0
2017-Sep-17 11:30N 34°39' E 135°26'0 0.0
2017-Sep-17 11:00N 34°39' E 135°26'0 0.0
2017-Sep-17 10:30N 34°39' E 135°26'0 0.0
2017-Sep-17 10:00N 34°39' E 135°26'0 0.0
2017-Sep-17 09:30N 34°39' E 135°26'0 0.0
2017-Sep-17 09:00N 34°39' E 135°26'0 0.0
2017-Sep-17 08:30N 34°39' E 135°26'0 0.0
2017-Sep-17 08:00N 34°39' E 135°26'0 0.0
2017-Sep-17 07:30N 34°39' E 135°26'0 0.0
2017-Sep-17 07:00N 34°39' E 135°26'0 0.0
2017-Sep-17 06:30N 34°39' E 135°26'0 0.0
2017-Sep-17 06:00N 34°39' E 135°26'0 0.0
2017-Sep-17 05:30N 34°39' E 135°26'0 0.0
2017-Sep-17 05:00N 34°39' E 135°26'0 0.0
2017-Sep-17 04:30N 34°39' E 135°26'0 0.0
2017-Sep-17 04:00N 34°39' E 135°26'0 0.0
2017-Sep-17 03:30N 34°39' E 135°26'0 0.0
2017-Sep-17 03:00N 34°39' E 135°26'0 0.0
2017-Sep-17 02:30N 34°39' E 135°26'0 0.0
2017-Sep-17 02:00N 34°39' E 135°26'0 0.0
2017-Sep-17 01:30N 34°39' E 135°26'2 3.4
2017-Sep-17 01:01N 34°39' E 135°24'0 0.2
2017-Sep-17 00:31N 34°39' E 135°24'1 2.7
2017-Sep-17 00:00N 34°39' E 135°26'  
Track history (hours):
 
Tides and Currents Weather Stations Pressure Air Temp Water Temp Dewpoint Dewpoint Depression Visibility Wind Speed Wind Dir Waves Ship Positions

Seiyo Maru

Last reported at 2017-Sep-18 02:51 UTC. Time now 2017-Sep-22 09:39 UTC.
Position N 34°39' E 135°26'.

Length 44 m; draft 4.5 m.

Type: Tug. MMSI: 431301711.

Date/timePositionNaut miles runAvg speedWind from/ knotsBaromVisibWave heightAir tempDewpointWater temp
2017-Sep-18 02:51N 34°39' E 135°26'2 6.8
2017-Sep-18 02:30N 34°38' E 135°24'4 7.8
2017-Sep-18 01:59N 34°34' E 135°24'1 1.0
2017-Sep-18 00:36N 34°33' E 135°25'1 4.1
2017-Sep-18 00:28N 34°33' E 135°24'3 7.1
2017-Sep-18 00:01N 34°33' E 135°20'0 0.7
2017-Sep-17 23:30N 34°34' E 135°20'4 7.1
2017-Sep-17 23:00N 34°37' E 135°23'4 7.5
2017-Sep-17 22:30N 34°39' E 135°26'0 0.0
2017-Sep-17 22:00N 34°39' E 135°26'0 0.0
2017-Sep-17 21:30N 34°39' E 135°26'0 0.0
2017-Sep-17 21:00N 34°39' E 135°26'0 0.0
2017-Sep-17 20:30N 34°39' E 135°26'0 0.0
2017-Sep-17 20:00N 34°39' E 135°26'0 0.0
2017-Sep-17 19:30N 34°39' E 135°26'0 0.0
2017-Sep-17 19:00N 34°39' E 135°26'0 0.0
2017-Sep-17 18:30N 34°39' E 135°26'0 0.0
2017-Sep-17 18:00N 34°39' E 135°26'0 0.0
2017-Sep-17 17:30N 34°39' E 135°26'0 0.0
2017-Sep-17 17:00N 34°39' E 135°26'0 0.0
2017-Sep-17 16:30N 34°39' E 135°26'0 0.0
2017-Sep-17 16:00N 34°39' E 135°26'0 0.0
2017-Sep-17 15:30N 34°39' E 135°26'0 0.0
2017-Sep-17 15:00N 34°39' E 135°26'0 0.0
2017-Sep-17 14:30N 34°39' E 135°26'0 0.0
2017-Sep-17 14:00N 34°39' E 135°26'0 0.0
2017-Sep-17 13:30N 34°39' E 135°26'0 0.0
2017-Sep-17 13:00N 34°39' E 135°26'0 0.0
2017-Sep-17 12:30N 34°39' E 135°26'0 0.0
2017-Sep-17 12:00N 34°39' E 135°26'0 0.0
2017-Sep-17 11:30N 34°39' E 135°26'0 0.0
2017-Sep-17 11:00N 34°39' E 135°26'0 0.0
2017-Sep-17 10:30N 34°39' E 135°26'0 0.0
2017-Sep-17 10:00N 34°39' E 135°26'0 0.0
2017-Sep-17 09:30N 34°39' E 135°26'0 0.0
2017-Sep-17 09:00N 34°39' E 135°26'0 0.0
2017-Sep-17 08:30N 34°39' E 135°26'0 0.0
2017-Sep-17 08:00N 34°39' E 135°26'0 0.0
2017-Sep-17 07:30N 34°39' E 135°26'0 0.0
2017-Sep-17 07:00N 34°39' E 135°26'0 0.0
2017-Sep-17 06:30N 34°39' E 135°26'0 0.0
2017-Sep-17 06:00N 34°39' E 135°26'0 0.0
2017-Sep-17 05:30N 34°39' E 135°26'0 0.0
2017-Sep-17 05:00N 34°39' E 135°26'0 0.0
2017-Sep-17 04:30N 34°39' E 135°26'0 0.0
2017-Sep-17 04:00N 34°39' E 135°26'0 0.0
2017-Sep-17 03:30N 34°39' E 135°26'0 0.0
2017-Sep-17 03:00N 34°39' E 135°26'0 0.0
2017-Sep-17 02:30N 34°39' E 135°26'0 0.0
2017-Sep-17 02:00N 34°39' E 135°26'0 0.0
2017-Sep-17 01:30N 34°39' E 135°26'2 3.4
2017-Sep-17 01:01N 34°39' E 135°24'0 0.2
2017-Sep-17 00:31N 34°39' E 135°24'1 2.7
2017-Sep-17 00:00N 34°39' E 135°26'  

Dump ship's entire track history